Time;durP1;ratioP1;P1;durP2;ratioP2;P2;SDS_P1;SDS_P2;PMS_P1;PMS_P2;Temp;Humidity;BMP_temperature;BMP_pressure;BME280_temperature;BME280_humidity;BME280_pressure;Samples;Min_cycle;Max_cycle;Signal;HPM_P1;HPM_P2
2022/01/16 00:00:08;;;;;;;52.65;24.73;;;3.70;99.90;;;;;;5035259;28;20144;-79
2022/01/16 00:05:03;;;;;;;41.85;20.83;;;3.60;99.90;;;;;;5038379;28;20057;-79
2022/01/16 00:07:29;;;;;;;34.42;20.38;;;3.60;99.90;;;;;;5035505;28;20052;-79
2022/01/16 00:09:54;;;;;;;38.30;21.80;;;3.60;99.90;;;;;;5035314;28;20056;-79
2022/01/16 00:12:23;;;;;;;46.92;22.75;;;3.50;99.90;;;;;;5037908;28;20037;-79
2022/01/16 00:14:48;;;;;;;50.50;23.60;;;3.50;99.90;;;;;;5036700;28;20066;-79
2022/01/16 00:17:14;;;;;;;44.85;22.65;;;3.50;99.90;;;;;;5039313;28;20622;-79
2022/01/16 00:19:39;;;;;;;44.58;23.15;;;3.50;99.90;;;;;;5038655;28;20056;-79
2022/01/16 00:22:12;;;;;;;39.30;24.88;;;3.50;99.90;;;;;;5037733;28;20132;-79
2022/01/16 00:24:37;;;;;;;34.85;20.40;;;3.50;99.90;;;;;;5036566;28;20179;-79
2022/01/16 00:27:03;;;;;;;42.17;19.55;;;3.40;99.90;;;;;;5034877;28;20829;-79
2022/01/16 00:29:31;;;;;;;39.35;20.27;;;3.30;99.90;;;;;;5037416;28;20037;-79
2022/01/16 00:31:56;;;;;;;47.75;21.65;;;3.30;99.90;;;;;;5070833;28;20049;-79
2022/01/16 00:34:22;;;;;;;37.67;19.67;;;3.30;99.90;;;;;;5037899;28;20051;-78
2022/01/16 00:36:48;;;;;;;38.00;24.50;;;3.30;99.90;;;;;;5038959;28;20075;-79
2022/01/16 00:39:13;;;;;;;38.50;18.88;;;3.30;99.90;;;;;;5029151;28;20132;-79
2022/01/16 00:41:40;;;;;;;32.35;19.20;;;3.30;99.90;;;;;;5036279;28;20527;-79
2022/01/16 00:44:06;;;;;;;37.00;19.27;;;3.50;99.90;;;;;;5038651;28;20053;-79
2022/01/16 00:46:32;;;;;;;36.63;19.17;;;3.10;99.90;;;;;;5037486;28;20052;-79
2022/01/16 00:48:58;;;;;;;40.13;21.00;;;3.10;99.90;;;;;;5039927;28;20045;-79
2022/01/16 00:51:24;;;;;;;39.30;21.55;;;3.10;99.90;;;;;;5038765;28;20045;-79
2022/01/16 00:53:50;;;;;;;40.17;20.02;;;3.10;99.90;;;;;;5039151;28;20146;-79
2022/01/16 00:56:16;;;;;;;49.20;23.42;;;3.10;99.90;;;;;;5038291;28;20634;-79
2022/01/16 00:58:42;;;;;;;42.95;22.85;;;3.20;99.90;;;;;;5038588;28;20064;-80
2022/01/16 01:01:08;;;;;;;42.85;21.30;;;3.20;99.90;;;;;;5033814;28;20598;-80
2022/01/16 01:03:33;;;;;;;35.58;18.88;;;2.40;99.90;;;;;;5036062;28;20053;-80
2022/01/16 01:05:59;;;;;;;37.65;22.25;;;3.20;99.90;;;;;;5035707;28;20057;-80
2022/01/16 01:08:28;;;;;;;37.08;19.90;;;3.10;99.90;;;;;;5037420;28;20063;-80
2022/01/16 01:10:54;;;;;;;30.85;17.90;;;3.20;99.90;;;;;;5036209;28;20134;-80
2022/01/16 01:15:51;;;;;;;34.55;19.55;;;3.20;99.90;;;;;;5037114;28;20057;-79
2022/01/16 01:18:18;;;;;;;35.58;18.60;;;3.20;99.90;;;;;;5037221;28;20151;-79
2022/01/16 01:20:47;;;;;;;30.70;20.13;;;3.20;99.90;;;;;;5039494;28;20636;-79
2022/01/16 01:23:12;;;;;;;36.85;19.65;;;3.20;99.90;;;;;;5038622;28;20076;-79
2022/01/16 01:25:39;;;;;;;34.88;18.17;;;3.20;99.90;;;;;;5039985;28;20159;-79
2022/01/16 01:28:07;;;;;;;39.15;20.85;;;3.10;99.90;;;;;;5038928;28;20068;-80
2022/01/16 01:30:33;;;;;;;33.03;18.52;;;3.10;99.90;;;;;;5039279;28;20500;-80
2022/01/16 01:32:59;;;;;;;29.92;17.75;;;3.00;99.90;;;;;;5039799;28;20049;-80
2022/01/16 01:35:25;;;;;;;37.67;20.58;;;3.00;99.90;;;;;;5038896;28;20107;-79
2022/01/16 01:37:51;;;;;;;36.05;21.65;;;3.00;99.90;;;;;;5039080;28;20143;-79
2022/01/16 01:40:28;;;;;;;39.63;21.17;;;2.90;99.90;;;;;;5037609;28;20087;-80
2022/01/16 01:51:36;;;;;;;47.88;22.75;;;3.00;99.90;;;;;;5039372;28;20080;-80
2022/01/16 01:54:04;;;;;;;41.85;22.80;;;3.10;99.90;;;;;;5038931;28;20773;-79
2022/01/16 01:56:29;;;;;;;42.53;22.15;;;3.10;99.90;;;;;;5038376;28;20515;-79
2022/01/16 01:58:57;;;;;;;37.65;20.67;;;3.10;99.90;;;;;;5037713;28;20053;-80
2022/01/16 02:01:24;;;;;;;40.95;23.83;;;3.10;99.90;;;;;;5037680;28;20409;-80
2022/01/16 02:03:49;;;;;;;49.15;23.08;;;3.10;99.90;;;;;;5039068;28;20159;-79
2022/01/16 02:06:27;;;;;;;43.60;24.42;;;3.10;99.90;;;;;;5038253;28;20051;-80
2022/01/16 02:08:55;;;;;;;44.00;23.70;;;3.10;99.90;;;;;;5029339;28;20037;-80
2022/01/16 02:11:25;;;;;;;45.53;22.80;;;3.10;99.90;;;;;;5039051;28;20060;-80
2022/01/16 02:14:02;;;;;;;45.97;21.92;;;3.10;99.90;;;;;;5036869;28;20075;-80
2022/01/16 02:35:48;;;;;;;54.72;26.90;;;3.00;99.90;;;;;;5037240;28;20060;-80
2022/01/16 02:38:14;;;;;;;51.22;26.33;;;3.00;99.90;;;;;;5037875;28;20132;-80
2022/01/16 02:40:44;;;;;;;42.10;22.20;;;3.10;99.90;;;;;;5037331;28;20044;-80
2022/01/16 02:43:09;;;;;;;48.53;25.50;;;3.10;99.90;;;;;;5035936;28;20056;-80
2022/01/16 02:45:37;;;;;;;49.95;26.35;;;3.10;99.90;;;;;;5034700;28;20122;-79
2022/01/16 02:48:06;;;;;;;41.13;24.33;;;3.10;99.90;;;;;;5035159;28;20163;-80
2022/01/16 02:50:34;;;;;;;44.47;24.75;;;3.10;99.90;;;;;;5035722;28;20119;-81
2022/01/16 02:53:00;;;;;;;57.45;27.27;;;3.10;99.90;;;;;;5035668;28;20138;-80
2022/01/16 02:55:26;;;;;;;49.70;24.02;;;3.20;99.90;;;;;;5035136;28;20481;-80
2022/01/16 02:57:54;;;;;;;53.25;28.60;;;3.20;99.90;;;;;;5034946;28;20064;-80
2022/01/16 03:00:22;;;;;;;51.13;28.92;;;3.10;99.90;;;;;;5036871;28;20179;-80
2022/01/16 03:02:48;;;;;;;59.25;26.90;;;3.20;99.90;;;;;;5037433;28;20053;-80
2022/01/16 03:05:14;;;;;;;54.92;26.33;;;3.10;99.90;;;;;;5032960;28;20064;-80
2022/01/16 03:07:42;;;;;;;53.17;27.00;;;3.20;99.90;;;;;;5065951;28;20076;-80
2022/01/16 03:12:51;;;;;;;50.78;25.75;;;3.20;99.90;;;;;;5038711;28;20045;-80
2022/01/16 03:15:18;;;;;;;53.42;27.98;;;3.20;99.90;;;;;;5038550;28;20041;-80
2022/01/16 03:23:17;;;;;;;54.22;30.60;;;3.30;99.90;;;;;;5036608;28;20167;-80
2022/01/16 03:25:44;;;;;;;53.55;30.48;;;3.20;99.90;;;;;;5040647;28;20586;-80
2022/01/16 03:28:10;;;;;;;60.25;28.75;;;3.20;99.90;;;;;;5040862;28;20542;-80
2022/01/16 03:30:35;;;;;;;58.53;30.02;;;3.20;99.90;;;;;;5040998;28;20090;-80
2022/01/16 03:33:01;;;;;;;60.28;31.80;;;3.20;99.90;;;;;;5035057;28;20911;-80
2022/01/16 03:35:27;;;;;;;58.70;29.00;;;3.20;99.90;;;;;;5041275;28;20151;-80
2022/01/16 03:37:52;;;;;;;63.63;30.70;;;3.20;99.90;;;;;;5040778;28;20128;-80
2022/01/16 03:40:21;;;;;;;53.88;31.42;;;3.20;99.90;;;;;;5041291;28;20055;-80
2022/01/16 03:42:47;;;;;;;51.13;30.05;;;3.20;99.90;;;;;;5040768;28;20631;-80
2022/01/16 03:45:13;;;;;;;59.72;30.35;;;3.20;99.90;;;;;;5040575;28;20052;-80
2022/01/16 03:47:40;;;;;;;58.85;31.45;;;3.20;99.90;;;;;;5041565;28;20083;-79
2022/01/16 03:50:07;;;;;;;61.22;29.17;;;3.20;99.90;;;;;;5040885;28;20056;-80
2022/01/16 03:52:33;;;;;;;51.30;26.13;;;3.20;99.90;;;;;;5041825;28;20085;-80
2022/01/16 03:54:59;;;;;;;64.32;34.42;;;3.30;99.90;;;;;;5040961;28;20151;-80
2022/01/16 03:57:24;;;;;;;64.03;28.27;;;3.30;99.90;;;;;;5040999;28;20099;-80
2022/01/16 03:59:50;;;;;;;54.10;32.17;;;3.30;99.90;;;;;;5041752;28;20064;-80
2022/01/16 04:02:16;;;;;;;56.42;29.33;;;3.30;99.90;;;;;;5042155;28;20037;-80
2022/01/16 04:04:41;;;;;;;57.30;28.50;;;3.30;99.90;;;;;;5042335;28;20049;-80
2022/01/16 04:07:09;;;;;;;54.55;30.65;;;3.30;99.90;;;;;;5039450;28;20074;-80
2022/01/16 04:09:35;;;;;;;59.45;29.75;;;3.30;99.90;;;;;;5040574;28;20049;-80
2022/01/16 04:12:01;;;;;;;54.38;30.38;;;3.30;99.90;;;;;;5040990;28;20121;-80
2022/01/16 04:17:22;;;;;;;60.35;29.73;;;3.40;99.90;;;;;;5040608;28;20061;-80
2022/01/16 04:19:49;;;;;;;69.72;33.63;;;3.30;99.90;;;;;;5040683;28;20059;-80
2022/01/16 04:22:14;;;;;;;63.45;31.45;;;3.40;99.90;;;;;;5042465;28;20080;-80
2022/01/16 04:24:41;;;;;;;65.80;32.42;;;3.40;99.90;;;;;;5041878;28;20182;-80
2022/01/16 04:27:10;;;;;;;45.95;26.55;;;3.40;99.90;;;;;;5041016;28;20484;-80
2022/01/16 04:29:35;;;;;;;55.35;28.20;;;3.40;99.90;;;;;;5040405;28;20128;-80
2022/01/16 04:32:01;;;;;;;60.03;31.10;;;3.40;99.90;;;;;;5041307;28;20063;-80
2022/01/16 04:34:26;;;;;;;60.05;29.98;;;3.50;99.90;;;;;;5039562;28;20081;-80
2022/01/16 04:36:52;;;;;;;68.18;32.65;;;3.50;99.90;;;;;;5041825;28;20041;-80
2022/01/16 04:39:20;;;;;;;65.53;29.88;;;3.50;99.90;;;;;;5040361;28;20057;-80
2022/01/16 04:44:31;;;;;;;58.85;30.25;;;3.50;99.90;;;;;;5041257;28;20096;-80
2022/01/16 04:46:58;;;;;;;60.88;28.83;;;3.50;99.90;;;;;;5039739;28;20132;-80
2022/01/16 04:49:24;;;;;;;54.95;28.15;;;3.50;99.90;;;;;;5041087;28;20908;-80
2022/01/16 04:51:49;;;;;;;55.75;27.15;;;3.60;99.90;;;;;;5041504;28;20051;-80
2022/01/16 04:54:15;;;;;;;62.78;32.83;;;3.60;99.90;;;;;;5039193;28;20094;-80
2022/01/16 04:56:40;;;;;;;59.53;30.60;;;3.60;99.90;;;;;;5041139;28;20820;-80
2022/01/16 04:59:06;;;;;;;65.03;32.47;;;3.60;99.90;;;;;;5041215;28;20516;-80
2022/01/16 05:01:33;;;;;;;59.35;30.73;;;3.60;99.90;;;;;;5039114;28;20417;-80
2022/01/16 05:03:58;;;;;;;66.78;31.90;;;3.60;99.90;;;;;;5041274;28;20064;-80
2022/01/16 05:06:24;;;;;;;56.75;29.70;;;3.60;99.90;;;;;;5041138;28;20133;-80
2022/01/16 05:08:50;;;;;;;52.25;28.58;;;3.70;99.90;;;;;;5038592;28;20128;-80
2022/01/16 05:11:21;;;;;;;63.20;31.67;;;3.70;99.90;;;;;;5039951;28;20135;-80
2022/01/16 05:18:56;;;;;;;56.67;28.75;;;3.80;99.90;;;;;;5024565;28;20056;-81
2022/01/16 05:21:22;;;;;;;60.63;30.15;;;3.80;99.90;;;;;;5037207;28;20053;-80
2022/01/16 05:23:48;;;;;;;58.90;30.20;;;3.80;99.90;;;;;;5038504;28;20041;-80
2022/01/16 05:26:17;;;;;;;62.38;30.00;;;3.90;99.90;;;;;;5038635;28;20099;-80
2022/01/16 05:28:43;;;;;;;65.10;30.48;;;3.90;99.90;;;;;;5038699;28;20595;-80
2022/01/16 05:31:09;;;;;;;55.10;27.92;;;3.90;99.90;;;;;;5036824;28;20053;-80
2022/01/16 05:33:35;;;;;;;67.72;33.20;;;3.90;99.90;;;;;;5037139;28;20048;-80
2022/01/16 05:36:00;;;;;;;59.72;28.98;;;3.90;99.90;;;;;;5037756;28;20079;-80
2022/01/16 05:38:26;;;;;;;63.97;32.58;;;3.90;99.90;;;;;;5033375;28;20067;-80
2022/01/16 05:40:52;;;;;;;61.63;30.27;;;3.90;99.90;;;;;;5036597;28;20754;-81
2022/01/16 05:43:17;;;;;;;66.38;30.60;;;3.90;99.90;;;;;;5038055;28;20057;-80
2022/01/16 05:45:43;;;;;;;65.45;29.92;;;3.80;99.90;;;;;;5037029;28;20044;-80
2022/01/16 05:48:08;;;;;;;62.10;31.67;;;3.90;99.90;;;;;;5039372;28;20057;-81
2022/01/16 05:50:34;;;;;;;61.10;29.65;;;3.90;99.90;;;;;;5038990;28;20041;-81
2022/01/16 05:53:01;;;;;;;64.40;30.98;;;3.90;99.90;;;;;;5038725;28;20048;-80
2022/01/16 05:55:31;;;;;;;60.95;29.85;;;3.90;99.90;;;;;;5038120;28;20049;-80
2022/01/16 05:57:57;;;;;;;66.25;30.65;;;3.90;99.90;;;;;;5038991;28;20053;-80
2022/01/16 06:00:23;;;;;;;67.93;33.42;;;3.90;99.90;;;;;;5038281;28;20726;-79
2022/01/16 06:02:48;;;;;;;59.55;31.05;;;4.00;99.90;;;;;;5034452;28;20491;-79
2022/01/16 06:05:16;;;;;;;61.72;30.75;;;4.00;99.90;;;;;;5037004;28;20468;-79
2022/01/16 06:07:45;;;;;;;60.17;28.52;;;4.00;99.90;;;;;;5071331;28;20052;-79
2022/01/16 06:10:11;;;;;;;59.80;31.30;;;4.00;99.90;;;;;;5036735;28;20139;-79
2022/01/16 06:12:37;;;;;;;56.05;29.30;;;4.00;99.90;;;;;;5035306;28;20051;-79
2022/01/16 06:15:05;;;;;;;70.00;31.38;;;4.00;99.90;;;;;;5036770;28;20056;-79
2022/01/16 06:17:30;;;;;;;73.40;39.25;;;3.40;99.90;;;;;;5034835;28;20052;-79
2022/01/16 06:19:56;;;;;;;57.72;32.13;;;4.00;99.90;;;;;;5035777;28;20053;-79
2022/01/16 06:22:21;;;;;;;66.95;33.60;;;4.10;99.90;;;;;;5034570;28;20984;-79
2022/01/16 06:24:47;;;;;;;59.97;29.88;;;4.10;99.90;;;;;;5035583;28;20939;-79
2022/01/16 06:27:12;;;;;;;68.10;33.55;;;4.10;99.90;;;;;;5035495;28;20049;-79
2022/01/16 06:29:38;;;;;;;68.10;30.02;;;4.10;99.90;;;;;;5035021;28;20044;-79
2022/01/16 06:32:04;;;;;;;64.18;30.23;;;4.10;99.90;;;;;;5034679;28;20049;-79
2022/01/16 06:34:30;;;;;;;54.40;29.70;;;4.10;99.90;;;;;;5034045;28;20049;-79
2022/01/16 06:36:58;;;;;;;59.22;28.35;;;4.10;99.90;;;;;;5035351;28;20048;-79
2022/01/16 06:39:24;;;;;;;57.92;30.05;;;4.10;99.90;;;;;;5036046;28;20057;-79
2022/01/16 06:41:50;;;;;;;65.10;35.42;;;4.10;99.90;;;;;;5033826;28;20045;-78
2022/01/16 06:44:16;;;;;;;56.25;31.00;;;4.20;99.90;;;;;;5034551;28;20061;-79
2022/01/16 06:46:41;;;;;;;61.03;30.17;;;4.20;99.90;;;;;;5034727;28;20049;-79
2022/01/16 06:49:07;;;;;;;59.33;34.13;;;4.30;99.90;;;;;;5035643;28;20194;-79
2022/01/16 06:51:33;;;;;;;63.60;32.17;;;4.30;99.90;;;;;;5033823;28;20172;-79
2022/01/16 06:54:00;;;;;;;61.33;29.40;;;4.30;99.90;;;;;;5034315;28;20061;-79
2022/01/16 06:56:25;;;;;;;57.47;31.45;;;4.30;99.90;;;;;;5035392;28;20059;-79
2022/01/16 06:58:51;;;;;;;68.32;34.65;;;4.40;99.90;;;;;;5034813;28;20040;-79
2022/01/16 07:01:17;;;;;;;63.78;30.10;;;4.40;99.90;;;;;;5035669;28;20056;-79
2022/01/16 07:03:43;;;;;;;62.40;28.27;;;4.50;99.90;;;;;;5035713;28;20048;-79
2022/01/16 07:06:09;;;;;;;51.55;29.17;;;4.50;99.90;;;;;;5035153;28;20041;-79
2022/01/16 07:08:34;;;;;;;59.25;30.27;;;4.60;99.90;;;;;;5033978;28;20083;-79
2022/01/16 07:11:01;;;;;;;59.20;28.50;;;4.60;99.90;;;;;;5034280;28;20057;-79
2022/01/16 07:13:28;;;;;;;61.35;31.25;;;4.60;99.90;;;;;;5034655;28;20056;-79
2022/01/16 07:15:54;;;;;;;64.93;31.92;;;4.70;99.90;;;;;;5033893;28;20042;-78
2022/01/16 07:18:20;;;;;;;59.80;30.48;;;4.70;99.90;;;;;;5036024;28;20057;-78
2022/01/16 07:20:46;;;;;;;59.08;28.85;;;4.70;99.90;;;;;;5034030;28;20080;-79
2022/01/16 07:23:13;;;;;;;64.75;33.40;;;4.80;99.90;;;;;;5035732;28;20199;-78
2022/01/16 07:25:42;;;;;;;66.45;35.47;;;4.70;99.90;;;;;;5034317;28;20067;-79
2022/01/16 07:28:08;;;;;;;60.92;30.88;;;4.70;99.90;;;;;;5034942;28;20064;-81
2022/01/16 07:30:36;;;;;;;69.35;34.35;;;4.80;99.90;;;;;;5033350;28;20052;-79
2022/01/16 07:33:05;;;;;;;67.45;33.28;;;4.80;99.90;;;;;;5035781;28;20052;-80
2022/01/16 07:35:32;;;;;;;61.80;33.10;;;4.80;99.90;;;;;;5034324;28;20049;-80
2022/01/16 07:37:58;;;;;;;61.15;31.65;;;4.80;99.90;;;;;;5034143;28;20079;-80
2022/01/16 07:40:25;;;;;;;62.35;30.08;;;4.80;99.90;;;;;;5030889;28;20037;-80
2022/01/16 07:42:51;;;;;;;64.43;34.42;;;4.80;99.90;;;;;;5034210;28;20052;-80
2022/01/16 07:45:16;;;;;;;68.30;34.58;;;4.90;99.90;;;;;;5033326;28;20064;-80
2022/01/16 07:47:42;;;;;;;65.30;31.38;;;4.90;99.90;;;;;;5034498;28;20053;-80
2022/01/16 07:50:08;;;;;;;73.05;31.15;;;5.00;99.90;;;;;;5032979;28;20064;-80
2022/01/16 07:52:34;;;;;;;60.78;30.83;;;5.00;99.90;;;;;;5033972;28;20691;-80
2022/01/16 07:55:00;;;;;;;65.88;34.97;;;5.00;99.90;;;;;;5034623;28;20131;-80
2022/01/16 07:57:26;;;;;;;69.90;33.55;;;5.00;99.90;;;;;;5034877;28;20148;-80
2022/01/16 07:59:52;;;;;;;59.28;33.22;;;5.00;99.90;;;;;;5034848;28;20052;-80
2022/01/16 08:02:18;;;;;;;63.17;32.38;;;5.00;99.90;;;;;;5032542;28;20055;-80
2022/01/16 08:04:44;;;;;;;70.90;31.42;;;5.10;99.90;;;;;;5031448;28;20041;-80
2022/01/16 08:07:10;;;;;;;51.97;30.50;;;5.10;99.90;;;;;;5032036;28;20485;-80
2022/01/16 08:09:40;;;;;;;65.78;34.05;;;5.10;99.90;;;;;;5032219;28;20037;-79
2022/01/16 08:12:06;;;;;;;66.90;31.23;;;5.10;99.90;;;;;;5029724;28;20052;-80
2022/01/16 08:14:33;;;;;;;64.38;32.85;;;5.10;99.90;;;;;;5036880;28;20571;-80
2022/01/16 08:17:00;;;;;;;57.05;31.75;;;5.20;99.90;;;;;;5035891;28;20076;-80
2022/01/16 08:19:26;;;;;;;72.35;35.30;;;5.20;99.90;;;;;;5036884;28;20492;-79
2022/01/16 08:21:52;;;;;;;55.30;31.88;;;5.20;99.90;;;;;;5036250;28;20099;-80
2022/01/16 08:24:18;;;;;;;61.42;31.98;;;5.30;99.90;;;;;;5036678;28;20463;-79
2022/01/16 08:26:43;;;;;;;62.33;30.33;;;5.30;99.90;;;;;;5035251;28;20190;-80
2022/01/16 08:29:09;;;;;;;64.88;32.15;;;5.30;99.90;;;;;;5036335;28;20040;-79
2022/01/16 08:31:35;;;;;;;54.03;33.10;;;5.30;99.90;;;;;;5033647;28;20078;-80
2022/01/16 08:34:01;;;;;;;57.50;34.28;;;5.40;99.90;;;;;;5036638;28;20041;-80
2022/01/16 08:36:26;;;;;;;61.17;29.23;;;5.40;99.90;;;;;;5035515;28;20045;-79
2022/01/16 08:38:54;;;;;;;59.72;33.47;;;5.40;99.90;;;;;;5035568;28;20217;-80
2022/01/16 08:41:20;;;;;;;57.60;30.55;;;5.40;99.90;;;;;;5034579;28;20059;-80
2022/01/16 08:43:46;;;;;;;55.22;28.80;;;5.50;99.90;;;;;;5034671;28;20055;-78
2022/01/16 08:46:13;;;;;;;57.90;31.70;;;5.50;99.90;;;;;;5036441;28;20049;-80
2022/01/16 08:48:39;;;;;;;49.60;29.05;;;5.60;99.90;;;;;;5032024;28;20049;-80
2022/01/16 08:51:04;;;;;;;48.97;29.58;;;5.60;99.90;;;;;;5036531;28;20048;-80
2022/01/16 08:53:30;;;;;;;45.63;28.60;;;5.70;99.90;;;;;;5035693;28;20052;-80
2022/01/16 08:55:58;;;;;;;51.53;28.08;;;5.70;99.90;;;;;;5035952;28;20037;-80
2022/01/16 08:58:23;;;;;;;54.97;31.08;;;5.80;99.90;;;;;;5038246;28;20173;-80
2022/01/16 09:00:50;;;;;;;52.83;27.08;;;5.80;99.90;;;;;;5033121;28;20562;-80
2022/01/16 09:03:17;;;;;;;47.95;26.48;;;5.90;99.90;;;;;;4683689;28;10000617;-81
2022/01/16 09:05:44;;;;;;;49.22;26.50;;;6.00;99.90;;;;;;5030706;28;20044;-80
2022/01/16 09:08:10;;;;;;;45.83;26.10;;;6.00;99.90;;;;;;5032445;28;20041;-81
2022/01/16 09:10:37;;;;;;;50.85;27.25;;;6.00;99.90;;;;;;5031983;28;20049;-81
2022/01/16 09:13:04;;;;;;;45.55;27.00;;;6.10;99.90;;;;;;5031804;28;20076;-81
2022/01/16 09:15:30;;;;;;;49.10;25.05;;;6.10;99.90;;;;;;5029717;28;20044;-81
2022/01/16 09:17:55;;;;;;;47.60;26.00;;;6.10;99.90;;;;;;5030839;28;20059;-81
2022/01/16 09:20:21;;;;;;;45.15;24.83;;;6.30;99.90;;;;;;5033753;28;20041;-80
2022/01/16 09:22:48;;;;;;;45.95;25.35;;;6.20;99.90;;;;;;5025709;28;20044;-81
2022/01/16 09:25:15;;;;;;;49.47;27.00;;;6.20;99.90;;;;;;5028223;28;20199;-80
2022/01/16 09:27:41;;;;;;;44.22;23.92;;;7.10;99.90;;;;;;5028884;28;20041;-80
2022/01/16 09:30:09;;;;;;;41.85;25.40;;;6.30;99.90;;;;;;5030139;28;20049;-80
2022/01/16 09:32:36;;;;;;;37.88;24.25;;;6.30;99.90;;;;;;4762397;28;10001262;-80
2022/01/16 09:35:04;;;;;;;49.25;26.23;;;6.40;99.90;;;;;;5032596;28;20301;-80
2022/01/16 09:37:29;;;;;;;40.40;22.17;;;6.40;99.90;;;;;;5031390;28;20159;-81
2022/01/16 09:39:58;;;;;;;42.85;23.27;;;6.40;99.90;;;;;;5030441;28;20124;-80
2022/01/16 09:42:24;;;;;;;39.92;24.05;;;6.50;99.90;;;;;;5065157;28;20908;-80
2022/01/16 09:44:50;;;;;;;43.72;22.67;;;6.50;99.90;;;;;;5064125;28;20480;-80
2022/01/16 09:47:16;;;;;;;40.55;23.20;;;6.50;99.90;;;;;;5032596;28;20948;-80
2022/01/16 09:49:42;;;;;;;33.80;22.58;;;6.50;99.90;;;;;;5029993;28;20041;-80
2022/01/16 09:52:08;;;;;;;36.40;22.33;;;6.50;99.90;;;;;;5031837;28;20053;-81
2022/01/16 09:54:36;;;;;;;33.72;21.23;;;6.60;99.90;;;;;;5030939;28;20047;-81
2022/01/16 09:57:02;;;;;;;37.88;20.88;;;6.60;99.90;;;;;;5027414;28;20118;-80
2022/01/16 09:59:28;;;;;;;35.92;18.98;;;6.60;99.90;;;;;;5028560;28;20139;-81
2022/01/16 10:01:54;;;;;;;38.45;20.45;;;6.60;99.90;;;;;;5026563;28;20036;-80
2022/01/16 10:04:30;;;;;;;30.92;20.95;;;6.60;99.90;;;;;;5024513;28;20045;-80
2022/01/16 10:06:57;;;;;;;29.13;19.40;;;6.70;99.90;;;;;;5027347;28;20048;-80
2022/01/16 10:09:23;;;;;;;33.22;20.92;;;6.80;99.90;;;;;;5029481;28;20045;-80
2022/01/16 10:11:57;;;;;;;34.97;17.73;;;6.80;99.90;;;;;;5025386;28;20055;-81
2022/01/16 10:14:30;;;;;;;34.40;19.67;;;6.90;99.90;;;;;;5029021;28;20041;-80
2022/01/16 10:16:57;;;;;;;31.75;19.88;;;6.90;99.90;;;;;;5026574;28;20595;-80
2022/01/16 10:19:25;;;;;;;29.27;19.92;;;6.90;99.90;;;;;;5023690;28;20788;-81
2022/01/16 10:21:51;;;;;;;34.40;17.83;;;7.00;99.90;;;;;;5025824;28;20878;-81
2022/01/16 10:24:29;;;;;;;24.63;16.85;;;7.00;99.90;;;;;;5020250;28;20036;-81
2022/01/16 10:27:17;;;;;;;31.42;16.10;;;7.10;99.90;;;;;;5029785;28;20574;-81
2022/01/16 10:29:56;;;;;;;27.13;16.77;;;7.10;99.90;;;;;;4682008;28;10000684;-80
2022/01/16 10:32:33;;;;;;;28.42;16.60;;;7.20;99.90;;;;;;5014723;28;20053;-80
2022/01/16 10:35:09;;;;;;;29.00;16.92;;;7.10;99.90;;;;;;5013962;28;20901;-80
2022/01/16 10:37:36;;;;;;;29.17;16.60;;;7.20;99.90;;;;;;5013067;28;20682;-80
2022/01/16 10:40:18;;;;;;;24.55;14.88;;;7.20;99.90;;;;;;5013860;28;20691;-80
2022/01/16 10:42:57;;;;;;;25.80;14.98;;;7.30;99.90;;;;;;5034799;28;20083;-80
2022/01/16 10:45:28;;;;;;;30.27;15.43;;;7.30;99.90;;;;;;5033864;28;20055;-81
2022/01/16 10:47:57;;;;;;;22.40;15.10;;;7.50;99.90;;;;;;5033415;28;20153;-80
2022/01/16 10:50:31;;;;;;;24.60;15.50;;;7.30;99.90;;;;;;5033064;28;20138;-80
2022/01/16 10:53:04;;;;;;;21.30;15.27;;;7.30;99.90;;;;;;5033454;28;20049;-80
2022/01/16 10:55:46;;;;;;;30.83;14.75;;;7.40;99.90;;;;;;5032608;28;20119;-80
2022/01/16 10:58:22;;;;;;;23.50;14.63;;;7.40;99.90;;;;;;5032775;28;20053;-80
2022/01/16 11:00:56;;;;;;;28.30;15.63;;;7.40;99.90;;;;;;5031858;28;20049;-81
2022/01/16 11:03:23;;;;;;;21.40;14.35;;;7.50;99.90;;;;;;5032693;28;20219;-80
2022/01/16 11:05:50;;;;;;;21.38;14.80;;;7.50;99.90;;;;;;5031993;28;20063;-81
2022/01/16 11:08:21;;;;;;;26.05;14.57;;;7.50;99.90;;;;;;5033092;28;20583;-81
2022/01/16 11:10:58;;;;;;;19.48;14.25;;;7.50;99.90;;;;;;5035171;28;20049;-80
2022/01/16 11:13:30;;;;;;;19.40;12.55;;;7.50;99.90;;;;;;5033788;28;20045;-80
2022/01/16 11:16:05;;;;;;;30.25;13.13;;;7.50;99.90;;;;;;5032295;28;21061;-81
2022/01/16 11:18:35;;;;;;;20.67;11.50;;;7.50;99.90;;;;;;5032785;28;20057;-81
2022/01/16 11:23:32;;;;;;;22.20;12.63;;;7.60;99.90;;;;;;5033541;28;20057;-81
2022/01/16 11:26:01;;;;;;;19.02;10.98;;;7.60;99.90;;;;;;5032309;28;20053;-81
2022/01/16 11:28:27;;;;;;;21.60;12.15;;;7.60;99.90;;;;;;5032556;28;20132;-81
2022/01/16 11:31:02;;;;;;;23.58;11.40;;;7.60;99.90;;;;;;5033184;28;20087;-80
2022/01/16 11:33:30;;;;;;;23.20;12.15;;;7.60;99.90;;;;;;5033595;28;20560;-81
2022/01/16 11:36:02;;;;;;;19.35;11.38;;;7.60;99.90;;;;;;5033284;28;20044;-80
2022/01/16 11:38:34;;;;;;;20.90;10.90;;;7.60;99.90;;;;;;5033842;28;20772;-80
2022/01/16 11:41:04;;;;;;;15.65;10.43;;;7.60;99.90;;;;;;5034387;28;20044;-80
2022/01/16 11:43:31;;;;;;;18.60;10.45;;;7.60;99.90;;;;;;5033980;28;20045;-75
2022/01/16 11:46:08;;;;;;;16.90;10.52;;;7.70;99.90;;;;;;5034785;28;20053;-73
2022/01/16 11:48:37;;;;;;;17.73;9.40;;;7.70;99.90;;;;;;5037758;28;20088;-80
2022/01/16 11:51:05;;;;;;;14.60;9.73;;;7.70;99.90;;;;;;5038018;28;20049;-80
2022/01/16 11:53:57;;;;;;;19.77;9.85;;;7.70;99.90;;;;;;5038083;28;20181;-80
2022/01/16 11:56:41;;;;;;;15.48;9.00;;;7.70;99.90;;;;;;5022828;28;20786;-80
2022/01/16 11:59:16;;;;;;;19.05;9.63;;;7.70;99.90;;;;;;5038977;28;20049;-81
2022/01/16 12:01:42;;;;;;;22.35;8.93;;;7.70;99.90;;;;;;5037067;28;20079;-80
2022/01/16 12:04:28;;;;;;;12.02;8.30;;;7.70;99.90;;;;;;5036247;28;20845;-81
2022/01/16 12:06:54;;;;;;;16.75;9.40;;;7.80;99.90;;;;;;5035478;28;20060;-80
2022/01/16 12:09:35;;;;;;;14.63;8.48;;;7.80;99.90;;;;;;5038284;28;20053;-80
2022/01/16 12:12:01;;;;;;;15.70;8.40;;;7.80;99.90;;;;;;5037142;28;20056;-80
2022/01/16 12:14:53;;;;;;;22.90;9.05;;;7.80;99.90;;;;;;5038435;28;20120;-73
2022/01/16 12:17:32;;;;;;;11.07;7.13;;;7.80;99.90;;;;;;5031362;28;20065;-82
2022/01/16 12:20:18;;;;;;;15.18;8.15;;;7.80;99.90;;;;;;5036251;28;20114;-81
2022/01/16 12:22:57;;;;;;;12.80;7.80;;;7.80;99.90;;;;;;5031042;28;20793;-81
2022/01/16 12:25:29;;;;;;;18.42;7.72;;;7.80;99.90;;;;;;5052716;28;20105;-81
2022/01/16 12:28:00;;;;;;;10.50;7.53;;;7.80;99.90;;;;;;5072049;28;20106;-82
2022/01/16 12:30:32;;;;;;;14.98;9.55;;;7.80;99.90;;;;;;5040082;28;20059;-81
2022/01/16 12:33:15;;;;;;;12.95;7.80;;;7.80;99.90;;;;;;5038728;28;20747;-81
2022/01/16 12:35:41;;;;;;;11.05;6.93;;;7.80;99.90;;;;;;5072185;28;20847;-82
2022/01/16 12:38:23;;;;;;;14.57;7.13;;;7.80;99.90;;;;;;5072288;28;20063;-81
2022/01/16 12:41:03;;;;;;;14.68;7.55;;;7.80;99.90;;;;;;5071766;28;20052;-82
2022/01/16 12:43:32;;;;;;;19.38;7.47;;;7.90;99.90;;;;;;5038198;28;20057;-75
2022/01/16 12:45:59;;;;;;;11.00;6.53;;;7.90;99.90;;;;;;5037134;28;20628;-82
2022/01/16 12:48:25;;;;;;;9.57;6.80;;;7.90;99.90;;;;;;5039016;28;20377;-81
2022/01/16 12:51:02;;;;;;;13.05;7.60;;;7.90;99.90;;;;;;5038939;28;20056;-81
2022/01/16 12:53:41;;;;;;;8.80;5.93;;;7.90;99.90;;;;;;5038101;28;20041;-81
2022/01/16 12:56:25;;;;;;;10.32;6.40;;;7.90;99.90;;;;;;5039229;28;20060;-80
2022/01/16 12:58:56;;;;;;;12.43;5.93;;;7.90;99.90;;;;;;5038089;28;21012;-81
2022/01/16 13:01:23;;;;;;;14.40;7.03;;;7.90;99.90;;;;;;5039597;28;20052;-80
2022/01/16 13:03:48;;;;;;;11.93;5.97;;;7.90;99.90;;;;;;5038700;28;20041;-81
2022/01/16 13:06:17;;;;;;;12.75;6.32;;;7.90;99.90;;;;;;5038750;28;20102;-80
2022/01/16 13:09:05;;;;;;;10.95;6.35;;;7.90;99.90;;;;;;5038671;28;20053;-81
2022/01/16 13:11:39;;;;;;;8.90;6.63;;;7.90;99.90;;;;;;5038080;28;20423;-81
2022/01/16 13:14:11;;;;;;;16.55;7.32;;;7.90;99.90;;;;;;5036849;28;20146;-81
2022/01/16 13:16:42;;;;;;;9.85;7.47;;;7.90;99.90;;;;;;5037502;28;20068;-82
2022/01/16 13:19:14;;;;;;;9.93;5.63;;;7.90;99.90;;;;;;5037652;28;20049;-81
2022/01/16 13:24:47;;;;;;;13.65;6.20;;;7.90;99.90;;;;;;5035959;28;20132;-81
2022/01/16 13:27:31;;;;;;;10.23;6.72;;;7.90;99.90;;;;;;5035967;28;20041;-81
2022/01/16 13:29:58;;;;;;;9.55;5.90;;;7.90;99.90;;;;;;5035122;28;20107;-81
2022/01/16 13:32:35;;;;;;;8.65;5.55;;;7.90;99.90;;;;;;5031854;28;20088;-82
2022/01/16 13:35:03;;;;;;;13.57;7.32;;;7.90;99.90;;;;;;5031395;28;20053;-82
2022/01/16 13:37:34;;;;;;;14.18;6.97;;;7.90;99.90;;;;;;5068535;28;20053;-81
2022/01/16 13:40:06;;;;;;;12.25;6.07;;;7.90;99.90;;;;;;5035367;28;20049;-81